sensor_id;sensor_type;location;lat;lon;timestamp;P1;durP1;ratioP1;P2;durP2;ratioP2
26977;SDS011;56314;48.088;11.642;2023-02-28T00:00:12;4.63;;;3.47;;
26977;SDS011;56314;48.088;11.642;2023-02-28T00:02:39;12.38;;;3.97;;
26977;SDS011;56314;48.088;11.642;2023-02-28T00:05:06;4.90;;;3.38;;
26977;SDS011;56314;48.088;11.642;2023-02-28T00:07:32;6.93;;;3.90;;
26977;SDS011;56314;48.088;11.642;2023-02-28T00:09:58;6.88;;;3.85;;
26977;SDS011;56314;48.088;11.642;2023-02-28T00:12:24;4.20;;;3.20;;
26977;SDS011;56314;48.088;11.642;2023-02-28T00:14:52;6.35;;;3.70;;
26977;SDS011;56314;48.088;11.642;2023-02-28T00:17:17;9.07;;;3.70;;
26977;SDS011;56314;48.088;11.642;2023-02-28T00:19:46;6.47;;;3.72;;
26977;SDS011;56314;48.088;11.642;2023-02-28T00:22:12;5.20;;;3.38;;
26977;SDS011;56314;48.088;11.642;2023-02-28T00:24:38;9.77;;;4.07;;
26977;SDS011;56314;48.088;11.642;2023-02-28T00:27:03;7.05;;;3.60;;
26977;SDS011;56314;48.088;11.642;2023-02-28T00:29:28;7.35;;;3.40;;
26977;SDS011;56314;48.088;11.642;2023-02-28T00:31:54;5.30;;;4.00;;
26977;SDS011;56314;48.088;11.642;2023-02-28T00:34:19;5.05;;;3.50;;
26977;SDS011;56314;48.088;11.642;2023-02-28T00:36:44;8.30;;;3.95;;
26977;SDS011;56314;48.088;11.642;2023-02-28T00:39:13;4.38;;;3.45;;
26977;SDS011;56314;48.088;11.642;2023-02-28T00:41:39;5.82;;;3.70;;
26977;SDS011;56314;48.088;11.642;2023-02-28T00:44:04;5.60;;;3.47;;
26977;SDS011;56314;48.088;11.642;2023-02-28T00:46:29;7.80;;;3.80;;
26977;SDS011;56314;48.088;11.642;2023-02-28T00:48:55;6.95;;;4.35;;
26977;SDS011;56314;48.088;11.642;2023-02-28T00:51:20;4.95;;;3.47;;
26977;SDS011;56314;48.088;11.642;2023-02-28T00:53:46;5.70;;;3.63;;
26977;SDS011;56314;48.088;11.642;2023-02-28T00:56:11;7.00;;;3.70;;
26977;SDS011;56314;48.088;11.642;2023-02-28T00:58:36;7.18;;;4.40;;
26977;SDS011;56314;48.088;11.642;2023-02-28T01:01:02;5.90;;;3.78;;
26977;SDS011;56314;48.088;11.642;2023-02-28T01:03:27;5.10;;;3.70;;
26977;SDS011;56314;48.088;11.642;2023-02-28T01:05:52;5.55;;;3.47;;
26977;SDS011;56314;48.088;11.642;2023-02-28T01:08:18;6.78;;;3.90;;
26977;SDS011;56314;48.088;11.642;2023-02-28T01:10:44;6.75;;;3.35;;
26977;SDS011;56314;48.088;11.642;2023-02-28T01:13:10;5.95;;;3.97;;
26977;SDS011;56314;48.088;11.642;2023-02-28T01:15:36;5.45;;;4.15;;
26977;SDS011;56314;48.088;11.642;2023-02-28T01:18:02;6.05;;;4.03;;
26977;SDS011;56314;48.088;11.642;2023-02-28T01:20:27;7.05;;;4.00;;
26977;SDS011;56314;48.088;11.642;2023-02-28T01:22:52;5.57;;;3.63;;
26977;SDS011;56314;48.088;11.642;2023-02-28T01:25:18;6.07;;;4.10;;
26977;SDS011;56314;48.088;11.642;2023-02-28T01:27:43;10.35;;;4.40;;
26977;SDS011;56314;48.088;11.642;2023-02-28T01:30:09;6.72;;;3.92;;
26977;SDS011;56314;48.088;11.642;2023-02-28T01:32:35;5.85;;;3.80;;
26977;SDS011;56314;48.088;11.642;2023-02-28T01:35:01;6.45;;;4.07;;
26977;SDS011;56314;48.088;11.642;2023-02-28T01:37:29;8.95;;;4.38;;
26977;SDS011;56314;48.088;11.642;2023-02-28T01:39:54;4.97;;;3.90;;
26977;SDS011;56314;48.088;11.642;2023-02-28T01:42:20;7.40;;;4.22;;
26977;SDS011;56314;48.088;11.642;2023-02-28T01:44:56;7.65;;;4.32;;
26977;SDS011;56314;48.088;11.642;2023-02-28T01:47:28;4.88;;;3.67;;
26977;SDS011;56314;48.088;11.642;2023-02-28T01:50:00;6.50;;;4.00;;
26977;SDS011;56314;48.088;11.642;2023-02-28T01:52:29;7.72;;;4.38;;
26977;SDS011;56314;48.088;11.642;2023-02-28T01:54:57;7.72;;;4.32;;
26977;SDS011;56314;48.088;11.642;2023-02-28T01:57:31;7.05;;;4.28;;
26977;SDS011;56314;48.088;11.642;2023-02-28T02:00:22;9.00;;;4.28;;
26977;SDS011;56314;48.088;11.642;2023-02-28T02:02:52;4.93;;;4.15;;
26977;SDS011;56314;48.088;11.642;2023-02-28T02:05:24;7.30;;;4.45;;
26977;SDS011;56314;48.088;11.642;2023-02-28T02:07:55;7.82;;;4.18;;
26977;SDS011;56314;48.088;11.642;2023-02-28T02:16:16;6.57;;;4.50;;
26977;SDS011;56314;48.088;11.642;2023-02-28T02:19:00;6.20;;;3.92;;
26977;SDS011;56314;48.088;11.642;2023-02-28T02:21:47;7.07;;;4.50;;
26977;SDS011;56314;48.088;11.642;2023-02-28T02:30:21;9.85;;;4.60;;
26977;SDS011;56314;48.088;11.642;2023-02-28T02:44:13;7.57;;;4.28;;
26977;SDS011;56314;48.088;11.642;2023-02-28T02:47:01;6.72;;;4.57;;
26977;SDS011;56314;48.088;11.642;2023-02-28T02:49:31;6.75;;;4.60;;
26977;SDS011;56314;48.088;11.642;2023-02-28T02:52:06;10.73;;;4.97;;
26977;SDS011;56314;48.088;11.642;2023-02-28T02:54:37;11.65;;;5.50;;
26977;SDS011;56314;48.088;11.642;2023-02-28T02:57:08;6.95;;;4.50;;
26977;SDS011;56314;48.088;11.642;2023-02-28T02:59:38;8.77;;;5.10;;
26977;SDS011;56314;48.088;11.642;2023-02-28T03:02:06;7.45;;;5.05;;
26977;SDS011;56314;48.088;11.642;2023-02-28T03:04:42;8.65;;;5.25;;
26977;SDS011;56314;48.088;11.642;2023-02-28T03:07:14;12.88;;;4.95;;
26977;SDS011;56314;48.088;11.642;2023-02-28T03:09:39;8.50;;;5.07;;
26977;SDS011;56314;48.088;11.642;2023-02-28T03:12:06;11.25;;;6.07;;
26977;SDS011;56314;48.088;11.642;2023-02-28T03:17:45;9.93;;;5.43;;
26977;SDS011;56314;48.088;11.642;2023-02-28T03:23:32;8.02;;;5.10;;
26977;SDS011;56314;48.088;11.642;2023-02-28T03:26:20;12.65;;;5.53;;
26977;SDS011;56314;48.088;11.642;2023-02-28T03:31:33;9.32;;;5.43;;
26977;SDS011;56314;48.088;11.642;2023-02-28T03:34:50;11.32;;;5.60;;
26977;SDS011;56314;48.088;11.642;2023-02-28T03:36:57;13.70;;;5.88;;
26977;SDS011;56314;48.088;11.642;2023-02-28T03:41:59;10.85;;;6.05;;
26977;SDS011;56314;48.088;11.642;2023-02-28T03:44:30;10.38;;;6.60;;
26977;SDS011;56314;48.088;11.642;2023-02-28T03:49:51;11.83;;;5.93;;
26977;SDS011;56314;48.088;11.642;2023-02-28T03:52:25;12.48;;;6.75;;
26977;SDS011;56314;48.088;11.642;2023-02-28T03:54:55;13.77;;;6.60;;
26977;SDS011;56314;48.088;11.642;2023-02-28T03:57:32;10.60;;;6.38;;
26977;SDS011;56314;48.088;11.642;2023-02-28T04:00:12;10.48;;;5.55;;
26977;SDS011;56314;48.088;11.642;2023-02-28T04:02:42;8.10;;;6.05;;
26977;SDS011;56314;48.088;11.642;2023-02-28T04:05:08;10.60;;;6.70;;
26977;SDS011;56314;48.088;11.642;2023-02-28T04:07:34;12.43;;;6.60;;
26977;SDS011;56314;48.088;11.642;2023-02-28T04:09:59;19.73;;;8.25;;
26977;SDS011;56314;48.088;11.642;2023-02-28T04:12:28;11.80;;;6.88;;
26977;SDS011;56314;48.088;11.642;2023-02-28T04:14:56;11.30;;;7.10;;
26977;SDS011;56314;48.088;11.642;2023-02-28T04:17:21;13.60;;;7.30;;
26977;SDS011;56314;48.088;11.642;2023-02-28T04:19:47;13.98;;;7.00;;
26977;SDS011;56314;48.088;11.642;2023-02-28T04:22:15;13.75;;;7.82;;
26977;SDS011;56314;48.088;11.642;2023-02-28T04:24:42;14.85;;;7.38;;
26977;SDS011;56314;48.088;11.642;2023-02-28T04:27:08;11.38;;;7.18;;
26977;SDS011;56314;48.088;11.642;2023-02-28T04:29:33;14.60;;;7.25;;
26977;SDS011;56314;48.088;11.642;2023-02-28T04:31:59;14.15;;;7.32;;
26977;SDS011;56314;48.088;11.642;2023-02-28T04:34:26;13.85;;;7.63;;
26977;SDS011;56314;48.088;11.642;2023-02-28T04:36:52;12.50;;;7.10;;
26977;SDS011;56314;48.088;11.642;2023-02-28T04:39:23;12.35;;;7.53;;
26977;SDS011;56314;48.088;11.642;2023-02-28T04:41:49;15.07;;;8.65;;
26977;SDS011;56314;48.088;11.642;2023-02-28T04:44:15;15.10;;;8.23;;
26977;SDS011;56314;48.088;11.642;2023-02-28T04:46:41;12.25;;;7.38;;
26977;SDS011;56314;48.088;11.642;2023-02-28T04:49:07;15.18;;;7.88;;
26977;SDS011;56314;48.088;11.642;2023-02-28T04:51:34;14.43;;;7.75;;
26977;SDS011;56314;48.088;11.642;2023-02-28T04:53:59;12.80;;;8.23;;
26977;SDS011;56314;48.088;11.642;2023-02-28T04:56:27;15.93;;;8.70;;
26977;SDS011;56314;48.088;11.642;2023-02-28T04:58:52;19.00;;;8.82;;
26977;SDS011;56314;48.088;11.642;2023-02-28T05:01:28;13.52;;;8.15;;
26977;SDS011;56314;48.088;11.642;2023-02-28T05:03:55;17.13;;;8.88;;
26977;SDS011;56314;48.088;11.642;2023-02-28T05:06:23;18.65;;;8.85;;
26977;SDS011;56314;48.088;11.642;2023-02-28T05:08:52;19.27;;;9.55;;
26977;SDS011;56314;48.088;11.642;2023-02-28T05:13:45;19.95;;;10.27;;
26977;SDS011;56314;48.088;11.642;2023-02-28T05:16:11;13.98;;;8.82;;
26977;SDS011;56314;48.088;11.642;2023-02-28T05:18:37;16.77;;;9.88;;
26977;SDS011;56314;48.088;11.642;2023-02-28T05:21:02;18.55;;;9.43;;
26977;SDS011;56314;48.088;11.642;2023-02-28T05:23:28;16.35;;;10.20;;
26977;SDS011;56314;48.088;11.642;2023-02-28T05:25:53;17.30;;;9.70;;
26977;SDS011;56314;48.088;11.642;2023-02-28T05:28:19;19.75;;;10.35;;
26977;SDS011;56314;48.088;11.642;2023-02-28T05:30:44;18.30;;;9.38;;
26977;SDS011;56314;48.088;11.642;2023-02-28T05:33:10;16.58;;;9.98;;
26977;SDS011;56314;48.088;11.642;2023-02-28T05:35:40;20.77;;;10.55;;
26977;SDS011;56314;48.088;11.642;2023-02-28T05:38:07;16.40;;;9.88;;
26977;SDS011;56314;48.088;11.642;2023-02-28T05:40:33;17.45;;;10.45;;
26977;SDS011;56314;48.088;11.642;2023-02-28T05:42:58;19.25;;;10.80;;
26977;SDS011;56314;48.088;11.642;2023-02-28T05:45:24;21.02;;;11.93;;
26977;SDS011;56314;48.088;11.642;2023-02-28T05:47:53;19.50;;;11.13;;
26977;SDS011;56314;48.088;11.642;2023-02-28T05:50:18;21.58;;;12.40;;
26977;SDS011;56314;48.088;11.642;2023-02-28T05:52:44;20.92;;;11.10;;
26977;SDS011;56314;48.088;11.642;2023-02-28T05:55:09;20.80;;;11.27;;
26977;SDS011;56314;48.088;11.642;2023-02-28T05:57:34;23.02;;;12.57;;
26977;SDS011;56314;48.088;11.642;2023-02-28T06:00:00;21.52;;;12.18;;
26977;SDS011;56314;48.088;11.642;2023-02-28T06:02:25;25.25;;;13.20;;
26977;SDS011;56314;48.088;11.642;2023-02-28T06:04:50;26.60;;;13.52;;
26977;SDS011;56314;48.088;11.642;2023-02-28T06:07:16;22.63;;;12.77;;
26977;SDS011;56314;48.088;11.642;2023-02-28T06:09:42;22.90;;;13.18;;
26977;SDS011;56314;48.088;11.642;2023-02-28T06:12:08;21.90;;;12.77;;
26977;SDS011;56314;48.088;11.642;2023-02-28T06:14:35;21.60;;;13.35;;
26977;SDS011;56314;48.088;11.642;2023-02-28T06:17:01;25.80;;;12.88;;
26977;SDS011;56314;48.088;11.642;2023-02-28T06:19:29;27.27;;;13.88;;
26977;SDS011;56314;48.088;11.642;2023-02-28T06:21:55;25.83;;;13.25;;
26977;SDS011;56314;48.088;11.642;2023-02-28T06:24:22;20.55;;;12.70;;
26977;SDS011;56314;48.088;11.642;2023-02-28T06:26:49;20.67;;;12.65;;
26977;SDS011;56314;48.088;11.642;2023-02-28T06:29:14;22.20;;;12.77;;
26977;SDS011;56314;48.088;11.642;2023-02-28T06:31:43;26.17;;;14.18;;
26977;SDS011;56314;48.088;11.642;2023-02-28T06:34:09;26.20;;;13.57;;
26977;SDS011;56314;48.088;11.642;2023-02-28T06:36:37;29.77;;;14.02;;
26977;SDS011;56314;48.088;11.642;2023-02-28T06:39:06;26.30;;;13.77;;
26977;SDS011;56314;48.088;11.642;2023-02-28T06:41:33;28.33;;;13.77;;
26977;SDS011;56314;48.088;11.642;2023-02-28T06:44:03;24.25;;;13.55;;
26977;SDS011;56314;48.088;11.642;2023-02-28T06:46:36;20.95;;;11.30;;
26977;SDS011;56314;48.088;11.642;2023-02-28T06:49:03;27.42;;;13.88;;
26977;SDS011;56314;48.088;11.642;2023-02-28T06:51:28;26.85;;;14.85;;
26977;SDS011;56314;48.088;11.642;2023-02-28T06:53:54;24.15;;;13.63;;
26977;SDS011;56314;48.088;11.642;2023-02-28T06:56:19;25.38;;;13.93;;
26977;SDS011;56314;48.088;11.642;2023-02-28T06:58:46;23.15;;;14.38;;
26977;SDS011;56314;48.088;11.642;2023-02-28T07:01:13;26.55;;;14.77;;
26977;SDS011;56314;48.088;11.642;2023-02-28T07:03:39;24.42;;;13.68;;
26977;SDS011;56314;48.088;11.642;2023-02-28T07:06:05;25.77;;;14.10;;
26977;SDS011;56314;48.088;11.642;2023-02-28T07:08:30;28.80;;;14.10;;
26977;SDS011;56314;48.088;11.642;2023-02-28T07:10:56;23.80;;;14.18;;
26977;SDS011;56314;48.088;11.642;2023-02-28T07:13:23;27.88;;;15.88;;
26977;SDS011;56314;48.088;11.642;2023-02-28T07:15:53;25.60;;;13.80;;
26977;SDS011;56314;48.088;11.642;2023-02-28T07:18:22;25.63;;;14.57;;
26977;SDS011;56314;48.088;11.642;2023-02-28T07:20:48;25.83;;;14.57;;
26977;SDS011;56314;48.088;11.642;2023-02-28T07:23:13;27.15;;;15.95;;
26977;SDS011;56314;48.088;11.642;2023-02-28T07:25:38;30.10;;;16.33;;
26977;SDS011;56314;48.088;11.642;2023-02-28T07:28:04;32.00;;;15.10;;
26977;SDS011;56314;48.088;11.642;2023-02-28T07:30:29;26.90;;;15.32;;
26977;SDS011;56314;48.088;11.642;2023-02-28T07:32:55;27.15;;;16.30;;
26977;SDS011;56314;48.088;11.642;2023-02-28T07:35:23;27.83;;;15.77;;
26977;SDS011;56314;48.088;11.642;2023-02-28T07:37:48;26.30;;;15.48;;
26977;SDS011;56314;48.088;11.642;2023-02-28T07:40:14;27.10;;;16.08;;
26977;SDS011;56314;48.088;11.642;2023-02-28T07:42:40;25.83;;;15.05;;
26977;SDS011;56314;48.088;11.642;2023-02-28T07:45:07;25.90;;;14.73;;
26977;SDS011;56314;48.088;11.642;2023-02-28T07:47:37;23.25;;;15.18;;
26977;SDS011;56314;48.088;11.642;2023-02-28T07:50:03;23.88;;;15.68;;
26977;SDS011;56314;48.088;11.642;2023-02-28T07:52:29;27.33;;;15.88;;
26977;SDS011;56314;48.088;11.642;2023-02-28T07:54:55;25.02;;;15.20;;
26977;SDS011;56314;48.088;11.642;2023-02-28T07:57:20;23.35;;;14.13;;
26977;SDS011;56314;48.088;11.642;2023-02-28T07:59:46;26.05;;;15.00;;
26977;SDS011;56314;48.088;11.642;2023-02-28T08:02:15;25.35;;;15.18;;
26977;SDS011;56314;48.088;11.642;2023-02-28T08:04:41;25.33;;;15.93;;
26977;SDS011;56314;48.088;11.642;2023-02-28T08:07:07;24.73;;;15.38;;
26977;SDS011;56314;48.088;11.642;2023-02-28T08:09:33;26.80;;;15.50;;
26977;SDS011;56314;48.088;11.642;2023-02-28T08:11:59;29.75;;;16.17;;
26977;SDS011;56314;48.088;11.642;2023-02-28T08:14:24;25.55;;;15.30;;
26977;SDS011;56314;48.088;11.642;2023-02-28T08:16:49;29.33;;;17.45;;
26977;SDS011;56314;48.088;11.642;2023-02-28T08:19:19;25.98;;;16.10;;
26977;SDS011;56314;48.088;11.642;2023-02-28T08:21:44;27.95;;;16.10;;
26977;SDS011;56314;48.088;11.642;2023-02-28T08:24:10;29.77;;;16.05;;
26977;SDS011;56314;48.088;11.642;2023-02-28T08:26:35;28.02;;;15.18;;
26977;SDS011;56314;48.088;11.642;2023-02-28T08:29:00;27.20;;;15.70;;
26977;SDS011;56314;48.088;11.642;2023-02-28T08:31:26;30.83;;;16.83;;
26977;SDS011;56314;48.088;11.642;2023-02-28T08:33:51;31.95;;;17.55;;
26977;SDS011;56314;48.088;11.642;2023-02-28T08:36:18;25.90;;;15.88;;
26977;SDS011;56314;48.088;11.642;2023-02-28T08:38:44;27.98;;;16.58;;
26977;SDS011;56314;48.088;11.642;2023-02-28T08:41:10;32.38;;;16.13;;
26977;SDS011;56314;48.088;11.642;2023-02-28T08:43:40;27.90;;;15.73;;
26977;SDS011;56314;48.088;11.642;2023-02-28T08:46:06;28.13;;;16.67;;
26977;SDS011;56314;48.088;11.642;2023-02-28T08:48:32;32.38;;;17.02;;
26977;SDS011;56314;48.088;11.642;2023-02-28T08:51:03;29.38;;;16.80;;
26977;SDS011;56314;48.088;11.642;2023-02-28T08:53:31;28.92;;;17.70;;
26977;SDS011;56314;48.088;11.642;2023-02-28T08:56:01;28.88;;;16.75;;
26977;SDS011;56314;48.088;11.642;2023-02-28T08:58:53;29.90;;;17.98;;
26977;SDS011;56314;48.088;11.642;2023-02-28T09:01:25;26.98;;;16.48;;
26977;SDS011;56314;48.088;11.642;2023-02-28T09:06:22;31.35;;;16.60;;
26977;SDS011;56314;48.088;11.642;2023-02-28T09:08:48;24.75;;;15.10;;
26977;SDS011;56314;48.088;11.642;2023-02-28T09:11:14;27.13;;;15.85;;
26977;SDS011;56314;48.088;11.642;2023-02-28T09:13:40;28.38;;;16.15;;
26977;SDS011;56314;48.088;11.642;2023-02-28T09:16:07;26.77;;;16.30;;
26977;SDS011;56314;48.088;11.642;2023-02-28T09:18:35;25.00;;;15.98;;
26977;SDS011;56314;48.088;11.642;2023-02-28T09:21:03;26.58;;;15.80;;
26977;SDS011;56314;48.088;11.642;2023-02-28T09:23:29;31.27;;;16.80;;
26977;SDS011;56314;48.088;11.642;2023-02-28T09:25:55;27.25;;;16.23;;
26977;SDS011;56314;48.088;11.642;2023-02-28T09:28:20;26.75;;;17.20;;
26977;SDS011;56314;48.088;11.642;2023-02-28T09:30:48;25.88;;;16.30;;
26977;SDS011;56314;48.088;11.642;2023-02-28T09:33:16;26.08;;;16.30;;
26977;SDS011;56314;48.088;11.642;2023-02-28T09:35:42;27.88;;;16.55;;
26977;SDS011;56314;48.088;11.642;2023-02-28T09:38:08;27.60;;;16.92;;
26977;SDS011;56314;48.088;11.642;2023-02-28T09:40:35;27.27;;;16.08;;
26977;SDS011;56314;48.088;11.642;2023-02-28T09:43:04;28.85;;;16.55;;
26977;SDS011;56314;48.088;11.642;2023-02-28T09:45:32;35.08;;;16.83;;
26977;SDS011;56314;48.088;11.642;2023-02-28T09:48:02;26.02;;;16.48;;
26977;SDS011;56314;48.088;11.642;2023-02-28T09:50:33;27.17;;;15.95;;
26977;SDS011;56314;48.088;11.642;2023-02-28T09:53:03;27.02;;;16.63;;
26977;SDS011;56314;48.088;11.642;2023-02-28T09:55:45;24.97;;;15.87;;
26977;SDS011;56314;48.088;11.642;2023-02-28T09:58:26;28.08;;;16.88;;
26977;SDS011;56314;48.088;11.642;2023-02-28T10:01:19;28.95;;;17.75;;
26977;SDS011;56314;48.088;11.642;2023-02-28T10:03:43;23.85;;;15.45;;
26977;SDS011;56314;48.088;11.642;2023-02-28T10:06:22;18.77;;;11.35;;
26977;SDS011;56314;48.088;11.642;2023-02-28T10:09:11;27.05;;;16.50;;
26977;SDS011;56314;48.088;11.642;2023-02-28T10:11:42;28.10;;;17.65;;
26977;SDS011;56314;48.088;11.642;2023-02-28T10:14:12;30.92;;;17.00;;
26977;SDS011;56314;48.088;11.642;2023-02-28T10:16:54;28.95;;;16.50;;
26977;SDS011;56314;48.088;11.642;2023-02-28T10:25:20;24.80;;;15.68;;
26977;SDS011;56314;48.088;11.642;2023-02-28T10:27:48;24.83;;;15.95;;
26977;SDS011;56314;48.088;11.642;2023-02-28T10:30:14;25.45;;;15.80;;
26977;SDS011;56314;48.088;11.642;2023-02-28T10:32:49;33.05;;;16.85;;
26977;SDS011;56314;48.088;11.642;2023-02-28T10:35:19;25.60;;;16.38;;
26977;SDS011;56314;48.088;11.642;2023-02-28T10:37:51;21.40;;;15.25;;
26977;SDS011;56314;48.088;11.642;2023-02-28T10:42:55;23.55;;;14.88;;
26977;SDS011;56314;48.088;11.642;2023-02-28T10:45:22;25.45;;;15.55;;
26977;SDS011;56314;48.088;11.642;2023-02-28T10:50:31;26.88;;;16.23;;
26977;SDS011;56314;48.088;11.642;2023-02-28T10:58:26;26.40;;;15.98;;
26977;SDS011;56314;48.088;11.642;2023-02-28T11:00:53;23.95;;;14.85;;
26977;SDS011;56314;48.088;11.642;2023-02-28T11:05:58;23.33;;;15.07;;
26977;SDS011;56314;48.088;11.642;2023-02-28T11:08:28;22.00;;;14.52;;
26977;SDS011;56314;48.088;11.642;2023-02-28T11:10:55;23.33;;;15.05;;
26977;SDS011;56314;48.088;11.642;2023-02-28T11:13:32;21.95;;;14.93;;
26977;SDS011;56314;48.088;11.642;2023-02-28T11:16:02;26.35;;;16.17;;
26977;SDS011;56314;48.088;11.642;2023-02-28T11:21:15;24.67;;;15.27;;
26977;SDS011;56314;48.088;11.642;2023-02-28T11:23:43;24.65;;;15.57;;
26977;SDS011;56314;48.088;11.642;2023-02-28T11:26:10;27.13;;;16.13;;
26977;SDS011;56314;48.088;11.642;2023-02-28T11:28:40;24.58;;;16.23;;
26977;SDS011;56314;48.088;11.642;2023-02-28T11:36:17;30.35;;;16.70;;
26977;SDS011;56314;48.088;11.642;2023-02-28T11:39:00;25.77;;;16.30;;
26977;SDS011;56314;48.088;11.642;2023-02-28T11:44:19;22.42;;;14.90;;
26977;SDS011;56314;48.088;11.642;2023-02-28T11:46:58;22.77;;;15.52;;
26977;SDS011;56314;48.088;11.642;2023-02-28T11:49:44;23.02;;;14.57;;
26977;SDS011;56314;48.088;11.642;2023-02-28T11:54:52;23.13;;;15.95;;
26977;SDS011;56314;48.088;11.642;2023-02-28T11:57:30;27.77;;;15.80;;
26977;SDS011;56314;48.088;11.642;2023-02-28T12:00:26;21.50;;;15.18;;
26977;SDS011;56314;48.088;11.642;2023-02-28T12:08:59;21.17;;;15.07;;
26977;SDS011;56314;48.088;11.642;2023-02-28T12:20:02;23.65;;;14.82;;
26977;SDS011;56314;48.088;11.642;2023-02-28T12:22:43;22.10;;;15.30;;
26977;SDS011;56314;48.088;11.642;2023-02-28T12:28:13;25.27;;;15.40;;
26977;SDS011;56314;48.088;11.642;2023-02-28T12:30:49;23.70;;;16.23;;
26977;SDS011;56314;48.088;11.642;2023-02-28T12:33:22;22.63;;;14.93;;
26977;SDS011;56314;48.088;11.642;2023-02-28T12:35:57;23.38;;;15.65;;
26977;SDS011;56314;48.088;11.642;2023-02-28T12:38:37;27.15;;;16.30;;
26977;SDS011;56314;48.088;11.642;2023-02-28T12:43:46;27.67;;;15.93;;
26977;SDS011;56314;48.088;11.642;2023-02-28T12:46:17;28.92;;;17.00;;
26977;SDS011;56314;48.088;11.642;2023-02-28T12:48:58;24.73;;;15.60;;
26977;SDS011;56314;48.088;11.642;2023-02-28T12:51:29;20.13;;;15.15;;
26977;SDS011;56314;48.088;11.642;2023-02-28T12:54:04;25.15;;;15.75;;
26977;SDS011;56314;48.088;11.642;2023-02-28T12:59:35;21.85;;;15.43;;
26977;SDS011;56314;48.088;11.642;2023-02-28T13:10:49;20.85;;;15.57;;
26977;SDS011;56314;48.088;11.642;2023-02-28T13:13:20;23.60;;;15.63;;
26977;SDS011;56314;48.088;11.642;2023-02-28T13:16:03;22.65;;;15.90;;
26977;SDS011;56314;48.088;11.642;2023-02-28T13:21:02;24.40;;;15.65;;
26977;SDS011;56314;48.088;11.642;2023-02-28T13:26:17;23.77;;;15.35;;
26977;SDS011;56314;48.088;11.642;2023-02-28T13:31:14;25.38;;;16.13;;
26977;SDS011;56314;48.088;11.642;2023-02-28T13:36:28;22.88;;;15.68;;
26977;SDS011;56314;48.088;11.642;2023-02-28T13:39:03;27.48;;;16.20;;
26977;SDS011;56314;48.088;11.642;2023-02-28T13:42:22;22.75;;;16.27;;
26977;SDS011;56314;48.088;11.642;2023-02-28T13:47:28;28.58;;;16.77;;
26977;SDS011;56314;48.088;11.642;2023-02-28T13:50:14;23.98;;;15.90;;
26977;SDS011;56314;48.088;11.642;2023-02-28T13:55:28;24.38;;;15.05;;
26977;SDS011;56314;48.088;11.642;2023-02-28T14:03:48;24.73;;;16.15;;
26977;SDS011;56314;48.088;11.642;2023-02-28T14:07:01;18.35;;;11.60;;
26977;SDS011;56314;48.088;11.642;2023-02-28T14:09:29;26.85;;;15.77;;
26977;SDS011;56314;48.088;11.642;2023-02-28T14:11:55;25.98;;;13.93;;
26977;SDS011;56314;48.088;11.642;2023-02-28T14:17:01;23.42;;;14.75;;
26977;SDS011;56314;48.088;11.642;2023-02-28T14:19:32;24.67;;;16.45;;
26977;SDS011;56314;48.088;11.642;2023-02-28T14:35:12;21.27;;;12.23;;
26977;SDS011;56314;48.088;11.642;2023-02-28T14:37:53;22.45;;;14.98;;
26977;SDS011;56314;48.088;11.642;2023-02-28T14:40:22;25.20;;;15.75;;
26977;SDS011;56314;48.088;11.642;2023-02-28T14:43:00;16.88;;;11.63;;
26977;SDS011;56314;48.088;11.642;2023-02-28T14:45:34;25.00;;;15.60;;
26977;SDS011;56314;48.088;11.642;2023-02-28T14:48:02;23.92;;;14.88;;
26977;SDS011;56314;48.088;11.642;2023-02-28T14:50:34;20.40;;;15.10;;
26977;SDS011;56314;48.088;11.642;2023-02-28T14:53:01;25.58;;;15.48;;
26977;SDS011;56314;48.088;11.642;2023-02-28T14:55:31;23.63;;;15.05;;
26977;SDS011;56314;48.088;11.642;2023-02-28T14:58:02;22.95;;;16.02;;
26977;SDS011;56314;48.088;11.642;2023-02-28T15:00:32;24.48;;;15.07;;
26977;SDS011;56314;48.088;11.642;2023-02-28T15:03:00;24.67;;;15.45;;
26977;SDS011;56314;48.088;11.642;2023-02-28T15:05:37;25.17;;;14.98;;
26977;SDS011;56314;48.088;11.642;2023-02-28T15:08:15;21.60;;;15.20;;
26977;SDS011;56314;48.088;11.642;2023-02-28T15:10:44;20.90;;;15.30;;
26977;SDS011;56314;48.088;11.642;2023-02-28T15:13:16;21.80;;;15.23;;
26977;SDS011;56314;48.088;11.642;2023-02-28T15:15:44;21.70;;;14.93;;
26977;SDS011;56314;48.088;11.642;2023-02-28T15:20:52;26.13;;;14.55;;
26977;SDS011;56314;48.088;11.642;2023-02-28T15:23:20;26.45;;;15.32;;
26977;SDS011;56314;48.088;11.642;2023-02-28T15:25:47;23.77;;;14.68;;
26977;SDS011;56314;48.088;11.642;2023-02-28T15:28:18;20.45;;;15.18;;
26977;SDS011;56314;48.088;11.642;2023-02-28T15:31:03;22.45;;;14.85;;
26977;SDS011;56314;48.088;11.642;2023-02-28T15:33:51;21.63;;;14.15;;
26977;SDS011;56314;48.088;11.642;2023-02-28T15:36:23;25.10;;;14.45;;
26977;SDS011;56314;48.088;11.642;2023-02-28T15:38:53;22.80;;;14.52;;
26977;SDS011;56314;48.088;11.642;2023-02-28T15:41:37;24.95;;;14.65;;
26977;SDS011;56314;48.088;11.642;2023-02-28T15:47:01;24.92;;;15.82;;
26977;SDS011;56314;48.088;11.642;2023-02-28T15:49:30;23.65;;;13.43;;
26977;SDS011;56314;48.088;11.642;2023-02-28T15:52:03;28.05;;;16.38;;
26977;SDS011;56314;48.088;11.642;2023-02-28T15:54:30;21.77;;;14.27;;
26977;SDS011;56314;48.088;11.642;2023-02-28T15:57:00;20.90;;;13.93;;
26977;SDS011;56314;48.088;11.642;2023-02-28T15:59:31;22.30;;;14.63;;
26977;SDS011;56314;48.088;11.642;2023-02-28T16:07:25;23.77;;;15.15;;
26977;SDS011;56314;48.088;11.642;2023-02-28T16:09:50;23.65;;;14.68;;
26977;SDS011;56314;48.088;11.642;2023-02-28T16:12:24;25.00;;;14.38;;
26977;SDS011;56314;48.088;11.642;2023-02-28T16:15:01;21.80;;;14.25;;
26977;SDS011;56314;48.088;11.642;2023-02-28T16:17:47;22.35;;;12.82;;
26977;SDS011;56314;48.088;11.642;2023-02-28T16:20:16;17.77;;;12.35;;
26977;SDS011;56314;48.088;11.642;2023-02-28T16:22:44;16.50;;;12.40;;
26977;SDS011;56314;48.088;11.642;2023-02-28T16:25:14;18.83;;;12.32;;
26977;SDS011;56314;48.088;11.642;2023-02-28T16:27:40;23.20;;;12.90;;
26977;SDS011;56314;48.088;11.642;2023-02-28T16:30:07;17.48;;;12.57;;
26977;SDS011;56314;48.088;11.642;2023-02-28T16:32:40;20.80;;;13.18;;
26977;SDS011;56314;48.088;11.642;2023-02-28T16:35:09;21.05;;;11.88;;
26977;SDS011;56314;48.088;11.642;2023-02-28T16:37:35;22.80;;;13.13;;
26977;SDS011;56314;48.088;11.642;2023-02-28T16:40:00;21.88;;;12.95;;
26977;SDS011;56314;48.088;11.642;2023-02-28T16:42:27;20.83;;;13.57;;
26977;SDS011;56314;48.088;11.642;2023-02-28T16:44:53;21.77;;;12.90;;
26977;SDS011;56314;48.088;11.642;2023-02-28T16:47:20;20.20;;;13.40;;
26977;SDS011;56314;48.088;11.642;2023-02-28T16:49:46;24.52;;;12.95;;
26977;SDS011;56314;48.088;11.642;2023-02-28T16:52:12;18.75;;;12.23;;
26977;SDS011;56314;48.088;11.642;2023-02-28T16:54:39;20.30;;;12.68;;
26977;SDS011;56314;48.088;11.642;2023-02-28T16:57:05;21.27;;;12.40;;
26977;SDS011;56314;48.088;11.642;2023-02-28T16:59:32;25.23;;;15.40;;
26977;SDS011;56314;48.088;11.642;2023-02-28T17:01:57;29.98;;;15.95;;
26977;SDS011;56314;48.088;11.642;2023-02-28T17:04:24;26.05;;;16.35;;